createdAt,value
2023-03-06T00:02:17.537Z,25.66
2023-03-06T00:06:17.649Z,25.62
2023-03-06T00:10:17.736Z,25.64
2023-03-06T00:14:17.858Z,25.68
2023-03-06T00:18:18.007Z,25.60
2023-03-06T00:22:18.116Z,25.59
2023-03-06T00:26:18.190Z,25.62
2023-03-06T00:30:18.328Z,25.57
2023-03-06T00:34:18.478Z,25.66
2023-03-06T00:38:18.511Z,25.62
2023-03-06T00:42:18.646Z,25.61
2023-03-06T00:46:18.794Z,25.59
2023-03-06T00:50:18.925Z,25.55
2023-03-06T00:54:19.001Z,25.59
2023-03-06T00:58:19.118Z,25.56
2023-03-06T01:02:19.289Z,25.56
2023-03-06T01:06:19.336Z,25.59
2023-03-06T01:10:19.435Z,25.57
2023-03-06T01:14:19.550Z,25.51
2023-03-06T01:18:19.670Z,25.54
2023-03-06T01:22:19.825Z,25.55
2023-03-06T01:26:19.931Z,25.61
2023-03-06T01:30:20.093Z,25.54
2023-03-06T01:34:20.205Z,25.50
2023-03-06T01:38:20.336Z,25.52
2023-03-06T01:42:20.476Z,25.50
2023-03-06T01:46:20.659Z,25.58
2023-03-06T01:50:20.768Z,25.48
2023-03-06T01:54:20.906Z,25.59
2023-03-06T01:58:21.014Z,25.53
2023-03-06T02:02:21.189Z,25.62
2023-03-06T02:06:21.266Z,25.58
2023-03-06T02:10:21.380Z,25.56
2023-03-06T02:14:21.537Z,25.49
2023-03-06T02:18:21.663Z,25.52
2023-03-06T02:22:21.817Z,25.54
2023-03-06T02:26:21.913Z,25.51
2023-03-06T02:30:22.047Z,25.50
2023-03-06T02:34:22.236Z,25.49
2023-03-06T02:38:22.350Z,25.50
2023-03-06T02:42:22.536Z,25.46
2023-03-06T02:46:22.688Z,25.47
2023-03-06T02:50:22.870Z,25.45
2023-03-06T02:54:23.045Z,25.45
2023-03-06T02:58:23.219Z,25.44
2023-03-06T03:02:23.411Z,25.45
2023-03-06T03:06:23.638Z,25.46
2023-03-06T03:10:23.749Z,25.42
2023-03-06T03:14:23.900Z,25.48
2023-03-06T03:18:24.139Z,25.46
2023-03-06T03:22:24.305Z,25.46
2023-03-06T03:26:24.522Z,25.36
2023-03-06T03:30:24.673Z,25.31
2023-03-06T03:34:24.890Z,25.33
2023-03-06T03:38:25.065Z,25.33
2023-03-06T03:42:25.296Z,25.22
2023-03-06T03:46:25.561Z,25.35
2023-03-06T03:50:25.769Z,25.33
2023-03-06T03:54:25.938Z,25.29
2023-03-06T03:58:26.152Z,25.35
2023-03-06T04:02:26.362Z,25.32
2023-03-06T04:06:26.566Z,25.26
2023-03-06T04:10:26.780Z,25.23
2023-03-06T04:14:26.975Z,25.23
2023-03-06T04:18:27.229Z,25.18
2023-03-06T04:22:27.356Z,25.14
2023-03-06T04:26:27.571Z,25.14
2023-03-06T04:30:27.817Z,25.21
2023-03-06T04:34:27.991Z,25.15
2023-03-06T04:38:28.193Z,25.13
2023-03-06T04:42:28.409Z,25.11
2023-03-06T04:46:28.630Z,25.10
2023-03-06T04:50:28.846Z,25.08
2023-03-06T04:54:29.063Z,25.05
2023-03-06T04:58:29.267Z,25.06
2023-03-06T05:02:29.518Z,25.05
2023-03-06T05:06:29.670Z,24.95
2023-03-06T05:10:29.648Z,24.91
2023-03-06T05:14:29.635Z,24.80
2023-03-06T05:18:29.592Z,24.70
2023-03-06T05:22:29.504Z,24.67
2023-03-06T05:26:29.503Z,24.62
2023-03-06T05:30:29.439Z,24.61
2023-03-06T05:34:29.426Z,24.60
2023-03-06T05:38:29.379Z,24.53
2023-03-06T05:42:29.332Z,24.57
2023-03-06T05:46:29.301Z,24.56
2023-03-06T05:50:29.272Z,24.57
2023-03-06T05:54:29.507Z,24.80
2023-03-06T05:58:29.644Z,24.94
2023-03-06T06:02:30.043Z,24.93
2023-03-06T06:06:30.110Z,25.09
2023-03-06T06:10:30.270Z,25.10
2023-03-06T06:14:30.457Z,25.23
2023-03-06T06:18:30.635Z,25.29
2023-03-06T06:22:30.799Z,25.28
2023-03-06T06:26:31.003Z,25.22
2023-03-06T06:30:31.183Z,25.27
2023-03-06T06:34:31.292Z,25.30
2023-03-06T06:38:31.450Z,25.60
2023-03-06T06:42:38.913Z,25.92
2023-03-06T06:47:18.262Z,26.20
2023-03-06T06:50:32.565Z,26.62
2023-03-06T06:54:31.565Z,27.33
2023-03-06T06:58:31.565Z,28.12
2023-03-06T07:02:31.588Z,28.56
2023-03-06T07:06:31.407Z,29.09
2023-03-06T07:10:31.570Z,29.35
2023-03-06T07:14:31.577Z,29.89
2023-03-06T07:18:31.338Z,30.07
2023-03-06T07:22:38.706Z,30.35
2023-03-06T07:26:34.664Z,30.68
2023-03-06T07:30:31.578Z,30.86
2023-03-06T07:34:31.185Z,30.86
2023-03-06T07:38:31.128Z,31.14
2023-03-06T07:42:31.125Z,31.31
2023-03-06T07:46:31.659Z,31.29
2023-03-06T07:50:31.113Z,32.10
2023-03-06T07:54:31.007Z,31.80
2023-03-06T07:58:31.041Z,31.68
2023-03-06T08:02:31.073Z,31.57
2023-03-06T08:06:30.910Z,31.59
2023-03-06T08:10:30.896Z,31.49
2023-03-06T08:14:31.106Z,31.50
2023-03-06T08:18:30.795Z,31.54
2023-03-06T08:22:30.767Z,31.55
2023-03-06T08:26:30.707Z,31.51
2023-03-06T08:30:31.083Z,31.57
2023-03-06T08:34:30.851Z,31.52
2023-03-06T08:38:30.944Z,31.54
2023-03-06T08:42:31.007Z,31.59
2023-03-06T08:46:31.085Z,31.94
2023-03-06T08:50:31.127Z,32.03
2023-03-06T08:54:31.105Z,32.31
2023-03-06T08:58:31.005Z,32.50
2023-03-06T09:02:31.248Z,32.78
2023-03-06T09:06:30.969Z,33.06
2023-03-06T09:10:30.969Z,33.40
2023-03-06T09:14:30.902Z,33.82
2023-03-06T09:18:30.861Z,34.11
2023-03-06T09:22:30.824Z,34.33
2023-03-06T09:26:45.036Z,34.64
2023-03-06T09:30:31.793Z,34.98
2023-03-06T09:34:30.736Z,35.30
2023-03-06T09:38:31.131Z,35.47
2023-03-06T09:42:31.180Z,35.90
2023-03-06T09:46:31.233Z,35.55
2023-03-06T09:50:30.609Z,35.48
2023-03-06T09:54:30.612Z,34.96
2023-03-06T09:58:30.625Z,34.66
2023-03-06T10:02:30.629Z,34.45
2023-03-06T10:06:30.513Z,34.17
2023-03-06T10:10:30.460Z,33.97
2023-03-06T10:14:30.393Z,33.72
2023-03-06T10:18:30.648Z,33.27
2023-03-06T10:22:30.348Z,33.11
2023-03-06T10:26:30.763Z,32.82
2023-03-06T10:30:30.251Z,32.49
2023-03-06T10:34:30.668Z,32.38
2023-03-06T10:38:30.660Z,32.24
2023-03-06T10:42:30.218Z,32.21
2023-03-06T10:46:30.252Z,32.56
2023-03-06T10:50:30.158Z,26.88
2023-03-06T10:54:30.198Z,27.77
2023-03-06T10:58:30.190Z,29.81
2023-03-06T11:02:30.680Z,30.71
2023-03-06T11:06:30.530Z,31.24
2023-03-06T11:10:31.165Z,31.67
2023-03-06T11:14:30.678Z,32.14
2023-03-06T11:18:30.728Z,32.64
2023-03-06T11:22:31.171Z,33.25
2023-03-06T11:26:31.152Z,33.52
2023-03-06T11:30:30.735Z,33.76
2023-03-06T11:34:31.170Z,34.14
2023-03-06T11:38:30.669Z,34.22
2023-03-06T11:42:30.667Z,34.55
2023-03-06T11:46:30.615Z,34.73
2023-03-06T11:50:30.649Z,34.96
2023-03-06T11:54:30.525Z,35.14
2023-03-06T11:58:30.498Z,35.36
2023-03-06T12:02:30.439Z,35.55
2023-03-06T12:06:30.428Z,35.65
2023-03-06T12:10:30.447Z,35.79
2023-03-06T12:14:30.583Z,36.03
2023-03-06T12:18:30.703Z,36.12
2023-03-06T12:22:31.338Z,36.35
2023-03-06T12:26:31.202Z,36.51
2023-03-06T12:30:31.189Z,36.69
2023-03-06T12:34:31.206Z,36.66
2023-03-06T12:38:31.293Z,36.25
2023-03-06T12:42:31.713Z,35.98
2023-03-06T12:46:31.520Z,35.77
2023-03-06T12:50:31.692Z,35.47
2023-03-06T12:54:31.764Z,35.37
2023-03-06T12:58:31.930Z,35.28
2023-03-06T13:02:32.104Z,35.22
2023-03-06T13:06:34.148Z,34.98
2023-03-06T13:10:32.219Z,34.88
2023-03-06T13:14:34.093Z,34.78
2023-03-06T13:18:32.101Z,34.46
2023-03-06T13:22:32.230Z,34.43
2023-03-06T13:26:32.861Z,34.14
2023-03-06T13:30:32.452Z,34.02
2023-03-06T13:34:32.592Z,33.80
2023-03-06T13:38:32.754Z,33.66
2023-03-06T13:42:32.922Z,33.45
2023-03-06T13:46:33.156Z,33.51
2023-03-06T13:50:33.272Z,33.31
2023-03-06T13:54:33.459Z,33.20
2023-03-06T13:58:33.639Z,33.11
2023-03-06T14:02:33.829Z,33.02
2023-03-06T14:06:34.029Z,32.88
2023-03-06T14:10:34.159Z,32.87
2023-03-06T14:14:34.330Z,32.82
2023-03-06T14:18:34.524Z,32.76
2023-03-06T14:22:34.724Z,32.59
2023-03-06T14:26:34.923Z,32.47
2023-03-06T14:30:35.757Z,32.51
2023-03-06T14:34:35.315Z,32.44
2023-03-06T14:38:35.240Z,32.37
2023-03-06T14:42:35.205Z,32.38
2023-03-06T14:46:35.272Z,32.34
2023-03-06T14:50:35.180Z,32.26
2023-03-06T14:54:35.106Z,32.20
2023-03-06T14:58:35.100Z,32.17
2023-03-06T15:02:35.076Z,32.15
2023-03-06T15:06:35.273Z,32.08
2023-03-06T15:10:34.974Z,32.00
2023-03-06T15:14:34.981Z,31.93
2023-03-06T15:18:35.255Z,31.92
2023-03-06T15:22:34.941Z,31.84
2023-03-06T15:26:34.907Z,31.81
2023-03-06T15:30:34.869Z,31.77
2023-03-06T15:34:34.856Z,31.76
2023-03-06T15:38:34.792Z,31.67
2023-03-06T15:42:34.787Z,31.64
2023-03-06T15:46:34.765Z,31.59
2023-03-06T15:50:34.710Z,31.56
2023-03-06T15:54:34.658Z,31.54
2023-03-06T15:58:34.692Z,31.48
2023-03-06T16:02:34.618Z,31.43
2023-03-06T16:06:34.555Z,31.32
2023-03-06T16:10:34.543Z,31.20
2023-03-06T16:14:34.493Z,31.14
2023-03-06T16:18:34.457Z,31.11
2023-03-06T16:22:34.438Z,31.01
2023-03-06T16:26:34.389Z,31.06
2023-03-06T16:30:34.356Z,31.00
2023-03-06T16:34:34.317Z,31.01
2023-03-06T16:38:34.275Z,30.93
2023-03-06T16:42:34.221Z,30.87
2023-03-06T16:46:34.247Z,30.72
2023-03-06T16:50:34.194Z,30.70
2023-03-06T16:54:34.198Z,30.59
2023-03-06T16:58:34.358Z,30.68
2023-03-06T17:02:34.531Z,30.88
2023-03-06T17:06:34.748Z,30.70
2023-03-06T17:10:34.966Z,30.69
2023-03-06T17:14:34.956Z,30.69
2023-03-06T17:18:34.874Z,30.74
2023-03-06T17:22:34.839Z,30.54
2023-03-06T17:26:34.797Z,30.63
2023-03-06T17:30:34.780Z,30.64
2023-03-06T17:34:34.758Z,30.67
2023-03-06T17:38:34.711Z,30.58
2023-03-06T17:42:34.675Z,30.55
2023-03-06T17:46:34.694Z,30.38
2023-03-06T17:50:34.617Z,30.37
2023-03-06T17:54:34.559Z,30.29
2023-03-06T17:58:34.596Z,30.19
2023-03-06T18:02:34.616Z,30.18
2023-03-06T18:06:34.608Z,30.07
2023-03-06T18:10:34.549Z,30.08
2023-03-06T18:14:34.546Z,29.98
2023-03-06T18:18:34.536Z,29.95
2023-03-06T18:22:34.587Z,29.88
2023-03-06T18:26:34.519Z,29.94
2023-03-06T18:30:34.556Z,29.83
2023-03-06T18:34:34.540Z,29.81
2023-03-06T18:38:34.511Z,29.80
2023-03-06T18:42:34.498Z,29.77
2023-03-06T18:46:34.499Z,29.69
2023-03-06T18:50:34.505Z,29.66
2023-03-06T18:54:34.581Z,29.65
2023-03-06T18:58:34.470Z,29.61
2023-03-06T19:02:34.553Z,29.57
2023-03-06T19:06:34.561Z,29.52
2023-03-06T19:10:34.585Z,29.53
2023-03-06T19:14:34.653Z,29.47
2023-03-06T19:18:34.751Z,29.47
2023-03-06T19:22:34.713Z,29.43
2023-03-06T19:26:34.773Z,29.36
2023-03-06T19:30:34.808Z,29.33
2023-03-06T19:34:34.929Z,29.35
2023-03-06T19:38:34.986Z,29.34
2023-03-06T19:42:35.092Z,29.36
2023-03-06T19:46:35.110Z,29.27
2023-03-06T19:50:35.210Z,29.26
2023-03-06T19:54:35.305Z,29.19
2023-03-06T19:58:35.339Z,29.20
2023-03-06T20:02:35.428Z,29.15
2023-03-06T20:06:35.551Z,29.09
2023-03-06T20:10:35.641Z,29.02
2023-03-06T20:14:35.769Z,29.09
2023-03-06T20:18:35.781Z,28.99
2023-03-06T20:22:35.896Z,28.92
2023-03-06T20:26:36.049Z,28.87
2023-03-06T20:30:38.336Z,28.86
2023-03-06T20:34:36.229Z,28.81
2023-03-06T20:38:36.355Z,28.79
2023-03-06T20:42:36.443Z,28.75
2023-03-06T20:46:36.610Z,28.75
2023-03-06T20:50:36.693Z,28.77
2023-03-06T20:54:36.836Z,28.70
2023-03-06T20:58:36.955Z,28.65
2023-03-06T21:02:37.121Z,28.65
2023-03-06T21:06:37.260Z,28.59
2023-03-06T21:10:37.418Z,28.60
2023-03-06T21:14:37.564Z,28.49
2023-03-06T21:18:37.733Z,28.50
2023-03-06T21:22:37.883Z,28.50
2023-03-06T21:26:38.039Z,28.51
2023-03-06T21:30:38.193Z,28.47
2023-03-06T21:34:38.375Z,28.44
2023-03-06T21:38:38.565Z,28.42
2023-03-06T21:42:38.720Z,28.40
2023-03-06T21:46:38.822Z,28.36
2023-03-06T21:50:38.989Z,28.46
2023-03-06T21:54:39.148Z,28.39
2023-03-06T21:58:39.339Z,28.36
2023-03-06T22:02:39.894Z,28.31
2023-03-06T22:06:39.640Z,28.26
2023-03-06T22:10:39.771Z,28.25
2023-03-06T22:14:39.923Z,28.21
2023-03-06T22:18:40.070Z,28.18
2023-03-06T22:22:40.201Z,28.16
2023-03-06T22:26:40.339Z,28.12
2023-03-06T22:30:40.527Z,28.08
2023-03-06T22:34:40.648Z,28.06
2023-03-06T22:38:40.839Z,28.05
2023-03-06T22:42:40.944Z,27.99
2023-03-06T22:46:41.172Z,27.94
2023-03-06T22:50:41.354Z,27.93
2023-03-06T22:54:41.505Z,27.86
2023-03-06T22:58:41.689Z,27.83
2023-03-06T23:02:41.858Z,27.86
2023-03-06T23:06:42.083Z,27.90
2023-03-06T23:10:42.247Z,27.89
2023-03-06T23:14:42.423Z,27.86
2023-03-06T23:18:42.533Z,27.84
2023-03-06T23:22:42.676Z,27.82
2023-03-06T23:26:42.893Z,27.78
2023-03-06T23:30:43.055Z,27.79
2023-03-06T23:34:43.265Z,27.78
2023-03-06T23:38:43.394Z,27.77
2023-03-06T23:42:43.642Z,27.76
2023-03-06T23:46:43.850Z,27.72
2023-03-06T23:50:44.020Z,27.66
2023-03-06T23:54:44.264Z,27.60
2023-03-06T23:58:44.494Z,27.56
